x

Portland 12 Nm Southeast Of Portland,me (44007) Wave Buoy

3:50 - Wed 29th Mar 2017 All times are EDT. -4 hours from GMT.

  • Sig Wave height 2.6ft
  • Swell Direction
  • Peak Period 15s
  • Average Period 5s
  • Wind
    18mph, 22mph gusts
  • Sea Temp 38°f
  • Ar Temp 42°f
  • Sea Pressure 1015.5mb
  • Portland 12 Nm Southeast Of Portland,me
  • Portland 12 Nm Southeast Of Portland,me

More Historic Weather Station data

Upgrade to MSW Pro to gain access to the past 30 days of data for over 8000 Wavebouys and Weather Stations around the globe.

Join Pro

Comparision Forecast

View Surf forecast
   
Qua 03/29 3:50 2.5ft 15s 5s 18 22 mph 1015.5mb 38f 42f
2:50 2.5ft 10s 6s 4 9 mph 1015.6mb 39f 40f
1:50 3ft 10s 6s 4 7 mph 1015.4mb 38f 40f
12:50 3.5ft 7s 6s 4 7 mph 1015.7mb 38f 39f
11:50 3.5ft 8s 6s 9 11 mph 1016mb 38f 39f
10:50 3.5ft 7s 5s 11 13 mph 1016.3mb 38f 38f
9:50 3ft 8s 5s 16 18 mph 1015.7mb 38f 38f
8:50 3ft 8s 5s 16 20 mph 1015.7mb 38f 37f
7:50 2.5ft 7s 5s 18 20 mph 1015.9mb 38f 36f
6:50 2.5ft 8s 5s 16 18 mph 1015.7mb 38f 36f
5:50 2.5ft 8s 5s 13
mph
1015.2mb 38f 36f
4:50 2.5ft 8s 5s 13 16 mph 1014.9mb 38f 36f
3:50 2.5ft 9s 5s 13 16 mph 1014.6mb 38f 36f
2:50 3ft 7s 6s 11 13 mph 1014.5mb 38f 36f
1:50 3ft 7s 6s 11
mph
1014.6mb 38f 36f
12:50 3ft 8s 6s 11 13 mph 1015mb 38f 37f
Ter 03/28 11:50 3.5ft 7s 6s 9
mph
1015.3mb 38f 37f
10:50 3ft 7s 6s 9
mph
1015.6mb 38f 37f
9:50 3.5ft 7s 6s 9 11 mph 1015.3mb 38f 37f
8:50 3.5ft 7s 6s 9
mph
1015.5mb 38f 38f
7:50 3.5ft 7s 6s 7 9 mph 1015.5mb 38f 37f
6:50 3ft 7s 6s 7
mph
1015.8mb 38f 37f
4:50 3ft 8s 6s 7 9 mph 1016mb 38f 36f
3:50 3.5ft 7s 6s 7 9 mph 1016mb 38f 37f
2:50 3.5ft 8s 6s 7
mph
1016.2mb 38f 36f
1:50 3.5ft 8s 6s 4
mph
1016.6mb 38f 35f
10:50 3.5ft 7s 5s 2
mph
1017.8mb 38f 35f
9:50 4ft 7s 6s 2
mph
1017.7mb 38f 35f
8:50 4.5ft 7s 6s 4 7 mph 1017.8mb 38f 34f
7:50 4.5ft 8s 6s 11 13 mph 1016.8mb 38f 34f
6:50 4.5ft 7s 6s 11
mph
1017mb 38f 34f
5:50 4.5ft 8s 6s 13 16 mph 1016.2mb 38f 34f
4:50 4.5ft 7s 6s 11 13 mph 1016.7mb 38f 34f
3:50 5ft 7s 6s 11 13 mph 1016.7mb 38f 34f
2:50 5ft 7s 6s 13 16 mph 1016.9mb 38f 34f
1:50 5ft 7s 6s 13 16 mph 1017mb 38f 34f
12:50 5.5ft 7s 6s 16 18 mph 1016.7mb 38f 34f
Seg 03/27 11:50 5ft 7s 5s 16 20 mph 1016.3mb 38f 34f
10:50 6ft 7s 5s 18 20 mph 1016.3mb 38f 34f
9:50 6ft 8s 5s 18 22 mph 1016.6mb 38f 34f
8:50 6ft 8s 6s 18 22 mph 1016.8mb 38f 35f
7:50 6.5ft 7s 5s 20 25 mph 1016.7mb 38f 36f
6:50 6.5ft 7s 5s 22 25 mph 1016.6mb 38f 36f
5:50 7ft 7s 6s 22 25 mph 1016.3mb 38f 37f
4:50 7ft 7s 6s 22 27 mph 1016.8mb 38f 37f
3:50 5.5ft 7s 5s 20 25 mph 1018.1mb 38f 37f
2:50 5ft 6s 5s 18 22 mph 1019.4mb 38f 37f
1:50 4.5ft 6s 5s 18 22 mph 1020.2mb 38f 38f
12:50 4.5ft 5s 4s 20 25 mph 1021.2mb 38f 37f
11:50 3.5ft 5s 4s 18 22 mph 1022.3mb 38f 37f
10:50 3.5ft 5s 4s 18 20 mph 1023.2mb 38f 37f
9:50 3.5ft 5s 4s 18 22 mph 1024mb 38f 36f
8:50 3ft 4s 4s 18 20 mph 1024.8mb 38f 35f
7:50 2.5ft 4s 4s 18 22 mph 1025.4mb 38f 36f
6:50 2.5ft 3s 4s 16 18 mph 1026.2mb 38f 36f
5:50 2ft 3s 4s 16 18 mph 1026.9mb 38f 35f
4:50 2ft 8s 4s 13 18 mph 1027.4mb 38f 37f
3:50 1.6ft 8s 4s 16 18 mph 1027.8mb 38f 37f
2:50 1.6ft 8s 4s 13
mph
1028.6mb 38f 37f
1:50 1.6ft 5s 4s 9 13 mph 1029.2mb 38f 36f
12:50 1.6ft 19s 4s 9 11 mph 1030.2mb 38f 36f
Dom 03/26 11:50 2ft 17s 4s 11 13 mph 1030.4mb 38f 36f
10:50 2ft 17s 5s 11
mph
1030.8mb 38f 35f
9:50 1.6ft 7s 5s 9 11 mph 1031.3mb 38f 35f
8:50 2ft 8s 5s 9 11 mph 1032.2mb 38f 35f
7:50 2ft 8s 5s 9 11 mph 1032.8mb 38f 35f
6:50 2ft 8s 5s 11 13 mph 1033.3mb 38f 34f
5:50 2.5ft 7s 5s 11 13 mph 1033.5mb 38f 34f
4:50 2.5ft 8s 5s 9 11 mph 1033.6mb 38f 33f
3:50 2.5ft 8s 5s 9 11 mph 1033.5mb 38f 33f
2:50 2.5ft 6s 5s 9 13 mph 1034.3mb 38f 32f
1:50 2.5ft 5s 4s 7 9 mph 1035.3mb 38f 31f
12:50 2.5ft 9s 4s 9 11 mph 1035.4mb 38f 31f
11:50 2.5ft 9s 4s 11 13 mph 1035.6mb 38f 30f
10:50 2.5ft 4s 4s 13 16 mph 1036mb 38f 31f
9:50 2.5ft 4s 4s 13 16 mph 1035.6mb 38f 31f
8:50 2.5ft 3s 4s 18 20 mph 1034.8mb 38f 31f
7:50 2.5ft 4s 4s 18 22 mph 1034.8mb 38f 31f
6:50 2.5ft 3s 3s 18 22 mph 1034.2mb 38f 32f
5:50 1.6ft 8s 3s 20 25 mph 1033.1mb 38f 33f
4:50 1.3ft 8s 4s 13 16 mph 1033.1mb 38f 33f
3:50 1.6ft 9s 4s 11 13 mph 1032.6mb 38f 33f
2:50 2ft 8s 4s 13 16 mph 1032mb 38f 34f
1:50 2ft 3s 4s 16 20 mph 1030.9mb 38f 35f
12:50 2ft 8s 4s 18 20 mph 1030.4mb 38f 36f
Sáb 03/25 11:50 2ft 8s 4s 20 22 mph 1029.7mb 38f 37f
10:50 2ft 8s 5s 16 18 mph 1029.2mb 38f 38f
9:50 1.6ft 7s 7s 13 18 mph 1028.6mb 38f 38f